Terminal Aerodrome Forecast
Issued by NWS

Home | Current Version | Previous Version | Text Only | Print | Product List | Glossary On
Versions: 1 2 3 4 5 6 7 8 9 10 11 12 13
000
FTUS42 TJSJ 241149
TAFJPS
TAF
TJPS 241149Z 2412/2512 06010KT P6SM VCSH SCT025 SCT060
     FM241600 VRB12KT 5SM TSRA SCT020CB BKN040 OVC060
     FM242000 18007KT P6SM VCSH SCT030 SCT060
     FM250000 00000KT P6SM FEW030 SCT060
      AMD NOT SKED 2412/2503=

USA.gov is the U.S. government's official web portal to all federal, state and local government web resources and services.